Aeroporto :
LOGIN :

Iscrizione | Disclaimer

   EN    FR    IT 

 










Sommario :    VFR   VFR Marginale   IFR   IFR Intensivo   IFR Molto Intensivo
Visibilità : 
Base nubi : 
>= 8 km
>= 3000ft
5 / 8 km
1000 / 3000 ft
1500m / 5 km
500 / 1000 ft
800 / 1500m
200 / 500 ft
< 800m
< 200 ft
Simboli :   Temporali  Nebbia  Neve Forte  Precipitazioni Forti  Vento > 20 kt
SIGMETs :   Varie  Temporali  Ghiacco  Turbolenza  Onda orograficha  Ceneri Vulcaniche






- Altitudine del aeroporto : 1363 ft


ETIC - Grafenwohr Army Air Field

ULTIMO METAR :
  • 210356Z AUTO 00000KT 9999 FEW230 06/04 A2988 RMK AO2 SLP129 T00570042 $

METARs OBSOLETI :
  • 210256Z AUTO 00000KT 9999 FEW120 SCT160 06/05 A2989 RMK AO2 SLP130 T00620047 57014 $
  • 210156Z AUTO 00000KT 9999 SCT160 06/05 A2991 RMK AO2 SLP137 T00620045 $
  • 210056Z AUTO 00000KT 9999 CLR 06/05 A2993 RMK AO2 SLP146 T00600045 $

TAF TAF ETIC
Valido dal 21 a 02 ore il 22 a 08 ore UTC


210200Z 2102/2208 VRB06KT 8000 BR SCT160 BKN200 QNH2992INS
TEMPO 2104/2106 4000 BR
BECMG 2107/2108 16006KT 9999 NSW SCT100 520255 QNH2996INS
BECMG 2117/2118 16012G18KT 9999 FEW010 SCT100 WS020/24040KT QNH2995INS
BECMG 2201/2202 VRB06KT 9999 FEW015 SCT040 QNH3003INS TX15/2113Z TN06/2118Z



MetMap, La meteo Aeronautica in un colpo d'occhio ! - Copyright ORBIFLY Dicembre 2007 - Disclaimer

ORBIFLY MET'MAP TEAM :

Programmazione e sviluppo : Alexandra Zaïnal
Concezione : Baudouin d'Aumeries
Aiuto per la programmazione : Marc-Olivier Méhu
Supporto tecnico e logistico : Manuel Goepfert
Aiuto per la traduzione : Arnaldo La Scala

Contatto : metmap@orbifly.com




FONTI E CREDITI :

   NOAA